createdAt,value
2019-02-20T00:00:36.915Z,84.39
2019-02-20T00:01:17.540Z,84.39
2019-02-20T00:01:58.123Z,84.48
2019-02-20T00:02:38.835Z,84.48
2019-02-20T00:03:19.417Z,84.58
2019-02-20T00:04:00.039Z,84.29
2019-02-20T00:04:40.604Z,84.1
2019-02-20T00:05:21.233Z,84.29
2019-02-20T00:06:01.794Z,84.1
2019-02-20T00:06:42.412Z,84.1
2019-02-20T00:07:22.982Z,84.1
2019-02-20T00:08:03.581Z,84.29
2019-02-20T00:08:46.554Z,84.29
2019-02-20T00:09:28.830Z,84.29
2019-02-20T00:10:09.022Z,84.2
2019-02-20T00:10:49.630Z,83.53
2019-02-20T00:11:30.171Z,83.72
2019-02-20T00:12:10.758Z,83.53
2019-02-20T00:12:51.345Z,83.72
2019-02-20T00:13:31.892Z,83.62
2019-02-20T00:14:12.449Z,83.53
2019-02-20T00:14:53.016Z,83.25
2019-02-20T00:15:33.614Z,83.44
2019-02-20T00:16:14.174Z,83.62
2019-02-20T00:16:54.742Z,83.62
2019-02-20T00:17:35.339Z,84.2
2019-02-20T00:18:15.925Z,84.01
2019-02-20T00:18:56.486Z,84.1
2019-02-20T00:19:37.029Z,83.91
2019-02-20T00:20:17.585Z,84.01
2019-02-20T00:20:58.162Z,83.82
2019-02-20T00:21:38.705Z,83.34
2019-02-20T00:22:19.335Z,82.96
2019-02-20T00:22:59.853Z,83.34
2019-02-20T00:23:40.441Z,83.44
2019-02-20T00:24:21.005Z,83.34
2019-02-20T00:25:01.567Z,82.96
2019-02-20T00:25:42.122Z,83.15
2019-02-20T00:26:22.705Z,82.87
2019-02-20T00:27:03.273Z,83.44
2019-02-20T00:27:43.813Z,83.25
2019-02-20T00:28:24.421Z,82.68
2019-02-20T00:29:04.982Z,83.06
2019-02-20T00:29:45.543Z,82.96
2019-02-20T00:30:26.088Z,82.87
2019-02-20T00:31:06.677Z,83.44
2019-02-20T00:31:47.252Z,83.44
2019-02-20T00:32:27.808Z,83.44
2019-02-20T00:33:08.367Z,82.87
2019-02-20T00:33:48.918Z,82.87
2019-02-20T00:34:29.470Z,82.39
2019-02-20T00:35:10.042Z,82.39
2019-02-20T00:35:50.631Z,82.96
2019-02-20T00:36:31.217Z,82.87
2019-02-20T00:37:11.787Z,82.96
2019-02-20T00:37:52.332Z,82.68
2019-02-20T00:38:32.889Z,82.01
2019-02-20T00:39:13.445Z,82.58
2019-02-20T00:39:54.006Z,82.77
2019-02-20T00:40:34.595Z,82.39
2019-02-20T00:41:15.154Z,82.58
2019-02-20T00:41:55.714Z,82.2
2019-02-20T00:42:36.327Z,82.87
2019-02-20T00:43:16.956Z,82.58
2019-02-20T00:43:57.508Z,82.58
2019-02-20T00:44:38.084Z,82.39
2019-02-20T00:45:18.696Z,82.68
2019-02-20T00:45:59.273Z,82.49
2019-02-20T00:46:39.831Z,82.29
2019-02-20T00:47:20.412Z,82.29
2019-02-20T00:48:00.991Z,82.29
2019-02-20T00:48:41.553Z,82.49
2019-02-20T00:49:22.144Z,82.77
2019-02-20T00:50:02.737Z,82.87
2019-02-20T00:50:43.305Z,82.77
2019-02-20T00:51:23.855Z,82.49
2019-02-20T00:52:04.407Z,82.39
2019-02-20T00:52:49.755Z,82.39
2019-02-20T00:53:25.590Z,82.39
2019-02-20T00:54:06.161Z,82.39
2019-02-20T00:54:46.714Z,82.29
2019-02-20T00:55:27.291Z,82.68
2019-02-20T00:56:07.850Z,82.87
2019-02-20T00:56:48.424Z,82.49
2019-02-20T00:57:28.990Z,82.68
2019-02-20T00:58:09.576Z,82.68
2019-02-20T00:58:50.124Z,83.15
2019-02-20T00:59:30.709Z,83.44
2019-02-20T01:00:11.293Z,83.25
2019-02-20T01:00:51.881Z,83.34
2019-02-20T01:01:32.457Z,83.53
2019-02-20T01:02:13.035Z,83.44
2019-02-20T01:02:53.627Z,83.53
2019-02-20T01:03:34.185Z,83.91
2019-02-20T01:04:14.779Z,83.72
2019-02-20T01:04:55.366Z,84.01
2019-02-20T01:05:35.930Z,84.01
2019-02-20T01:06:16.510Z,84.2
2019-02-20T01:06:57.091Z,84.48
2019-02-20T01:07:37.674Z,84.29
2019-02-20T01:08:18.230Z,84.29
2019-02-20T01:08:58.787Z,84.29
2019-02-20T01:09:39.370Z,84.58
2019-02-20T01:10:19.943Z,84.39
2019-02-20T01:11:00.516Z,84.39
2019-02-20T01:11:41.117Z,84.2
2019-02-20T01:12:21.641Z,84.1
2019-02-20T01:13:02.231Z,84.1
2019-02-20T01:13:42.813Z,84.2
2019-02-20T01:14:23.393Z,84.29
2019-02-20T01:15:03.940Z,83.82
2019-02-20T01:15:44.563Z,83.91
2019-02-20T01:16:25.087Z,83.62
2019-02-20T01:17:05.671Z,83.82
2019-02-20T01:17:46.272Z,83.72
2019-02-20T01:18:26.831Z,83.72
2019-02-20T01:19:07.422Z,83.82
2019-02-20T01:19:47.988Z,83.53
2019-02-20T01:20:28.574Z,83.62
2019-02-20T01:21:09.154Z,83.53
2019-02-20T01:21:49.765Z,82.96
2019-02-20T01:22:30.303Z,83.44
2019-02-20T01:23:10.893Z,82.77
2019-02-20T01:23:51.481Z,83.44
2019-02-20T01:24:32.053Z,83.06
2019-02-20T01:25:12.596Z,82.68
2019-02-20T01:25:53.178Z,82.29
2019-02-20T01:26:33.759Z,82.77
2019-02-20T01:27:14.352Z,82.2
2019-02-20T01:27:54.998Z,82.49
2019-02-20T01:28:35.552Z,82.2
2019-02-20T01:29:16.089Z,82.49
2019-02-20T01:29:56.663Z,82.39
2019-02-20T01:30:37.245Z,82.68
2019-02-20T01:31:17.823Z,82.77
2019-02-20T01:31:58.401Z,82.96
2019-02-20T01:32:39.877Z,82.87
2019-02-20T01:33:20.441Z,82.2
2019-02-20T01:34:01.005Z,82.29
2019-02-20T01:34:41.615Z,82.39
2019-02-20T01:35:22.221Z,82.2
2019-02-20T01:36:02.817Z,82.2
2019-02-20T01:36:43.389Z,82.2
2019-02-20T01:37:23.972Z,82.39
2019-02-20T01:38:04.607Z,82.29
2019-02-20T01:38:45.138Z,82.39
2019-02-20T01:39:25.713Z,82.39
2019-02-20T01:40:06.297Z,82.29
2019-02-20T01:40:46.892Z,82.29
2019-02-20T01:41:27.456Z,82.1
2019-02-20T01:42:08.013Z,82.68
2019-02-20T01:42:48.588Z,82.49
2019-02-20T01:43:29.157Z,82.49
2019-02-20T01:44:09.726Z,82.2
2019-02-20T01:44:50.314Z,82.29
2019-02-20T01:45:30.888Z,82.29
2019-02-20T01:46:11.420Z,82.1
2019-02-20T01:46:51.971Z,82.2
2019-02-20T01:47:32.590Z,82.2
2019-02-20T01:48:13.160Z,82.1
2019-02-20T01:48:53.748Z,82.2
2019-02-20T01:49:34.313Z,82.2
2019-02-20T01:50:14.896Z,82.39
2019-02-20T01:50:55.451Z,82.39
2019-02-20T01:51:36.022Z,82.01
2019-02-20T01:52:16.599Z,81.82
2019-02-20T01:52:57.159Z,82.2
2019-02-20T01:53:37.705Z,82.29
2019-02-20T01:54:18.292Z,82.2
2019-02-20T01:54:58.860Z,82.1
2019-02-20T01:55:39.417Z,81.63
2019-02-20T01:56:19.993Z,81.73
2019-02-20T01:57:00.535Z,80.96
2019-02-20T01:57:41.113Z,81.54
2019-02-20T01:58:21.667Z,81.54
2019-02-20T01:59:02.237Z,81.73
2019-02-20T01:59:42.935Z,81.54
2019-02-20T02:00:23.514Z,81.73
2019-02-20T02:01:04.106Z,81.63
2019-02-20T02:01:44.674Z,81.54
2019-02-20T02:02:25.231Z,81.16
2019-02-20T02:03:05.792Z,80.96
2019-02-20T02:03:46.429Z,81.16
2019-02-20T02:04:27.001Z,81.06
2019-02-20T02:05:14.736Z,81.06
2019-02-20T02:05:48.124Z,80.77
2019-02-20T02:06:28.732Z,80.02
2019-02-20T02:07:09.316Z,80.49
2019-02-20T02:07:49.938Z,80.68
2019-02-20T02:08:30.495Z,80.21
2019-02-20T02:09:11.058Z,80.49
2019-02-20T02:09:51.646Z,80.4
2019-02-20T02:10:32.216Z,80.4
2019-02-20T02:11:12.818Z,80.49
2019-02-20T02:11:53.379Z,80.4
2019-02-20T02:12:33.962Z,80.11
2019-02-20T02:13:14.542Z,80.02
2019-02-20T02:13:55.122Z,80.11
2019-02-20T02:14:35.682Z,80.21
2019-02-20T02:15:20.402Z,79.92
2019-02-20T02:15:56.806Z,80.21
2019-02-20T02:16:37.377Z,80.11
2019-02-20T02:17:17.944Z,80.11
2019-02-20T02:17:58.491Z,80.21
2019-02-20T02:18:39.123Z,79.92
2019-02-20T02:19:19.719Z,80.49
2019-02-20T02:20:00.312Z,80.11
2019-02-20T02:20:40.884Z,79.73
2019-02-20T02:21:21.441Z,80.21
2019-02-20T02:22:02.015Z,80.02
2019-02-20T02:22:42.587Z,80.02
2019-02-20T02:23:23.135Z,80.21
2019-02-20T02:24:03.725Z,80.3
2019-02-20T02:24:44.361Z,80.49
2019-02-20T02:25:24.919Z,80.02
2019-02-20T02:26:10.774Z,80.49
2019-02-20T02:26:46.103Z,80.11
2019-02-20T02:27:26.669Z,80.21
2019-02-20T02:28:07.253Z,80.02
2019-02-20T02:28:47.824Z,80.11
2019-02-20T02:29:28.409Z,80.21
2019-02-20T02:30:08.981Z,79.83
2019-02-20T02:30:49.584Z,80.02
2019-02-20T02:31:30.134Z,79.83
2019-02-20T02:32:10.727Z,80.02
2019-02-20T02:32:51.269Z,80.11
2019-02-20T02:33:31.843Z,80.11
2019-02-20T02:34:12.467Z,80.11
2019-02-20T02:34:53.053Z,79.92
2019-02-20T02:35:33.665Z,79.54
2019-02-20T02:36:14.242Z,79.25
2019-02-20T02:36:54.797Z,79.44
2019-02-20T02:37:35.433Z,79.73
2019-02-20T02:38:16.069Z,79.73
2019-02-20T02:38:56.642Z,79.73
2019-02-20T02:39:37.270Z,79.54
2019-02-20T02:40:17.880Z,79.73
2019-02-20T02:40:58.402Z,79.54
2019-02-20T02:41:38.974Z,79.73
2019-02-20T02:42:19.554Z,79.54
2019-02-20T02:43:00.122Z,79.73
2019-02-20T02:43:40.674Z,79.54
2019-02-20T02:44:21.221Z,79.44
2019-02-20T02:45:01.790Z,79.63
2019-02-20T02:45:42.343Z,79.06
2019-02-20T02:46:22.937Z,78.88
2019-02-20T02:47:03.552Z,78.97
2019-02-20T02:47:44.120Z,78.78
2019-02-20T02:48:24.684Z,78.78
2019-02-20T02:49:05.277Z,78.88
2019-02-20T02:49:45.818Z,78.97
2019-02-20T02:50:26.400Z,78.78
2019-02-20T02:51:06.993Z,78.59
2019-02-20T02:51:47.555Z,78.78
2019-02-20T02:52:28.137Z,78.97
2019-02-20T02:53:08.713Z,78.59
2019-02-20T02:53:49.272Z,78.97
2019-02-20T02:54:29.837Z,78.97
2019-02-20T02:55:10.445Z,78.72
2019-02-20T02:55:51.051Z,78.82
2019-02-20T02:56:31.606Z,78.78
2019-02-20T02:57:12.160Z,78.88
2019-02-20T02:57:52.726Z,79.01
2019-02-20T02:58:33.314Z,79.06
2019-02-20T02:59:13.967Z,78.59
2019-02-20T02:59:54.524Z,78.3
2019-02-20T03:00:35.087Z,78.53
2019-02-20T03:01:15.645Z,78.59
2019-02-20T03:01:56.216Z,78.3
2019-02-20T03:02:36.760Z,78.5
2019-02-20T03:03:17.375Z,78.59
2019-02-20T03:03:57.967Z,78.4
2019-02-20T03:04:38.549Z,78.5
2019-02-20T03:05:19.130Z,78.3
2019-02-20T03:05:59.681Z,78.88
2019-02-20T03:06:40.231Z,79.06
2019-02-20T03:07:20.799Z,78.59
2019-02-20T03:08:01.386Z,78.3
2019-02-20T03:08:41.979Z,78.4
2019-02-20T03:09:22.532Z,78.3
2019-02-20T03:10:03.086Z,78.5
2019-02-20T03:10:43.682Z,78.5
2019-02-20T03:11:24.267Z,78.5
2019-02-20T03:12:04.856Z,78.97
2019-02-20T03:12:45.402Z,79.06
2019-02-20T03:13:25.983Z,79.06
2019-02-20T03:14:06.559Z,79.06
2019-02-20T03:14:47.153Z,79.16
2019-02-20T03:15:27.711Z,79.06
2019-02-20T03:16:08.262Z,78.97
2019-02-20T03:16:48.865Z,79.16
2019-02-20T03:17:29.423Z,79.06
2019-02-20T03:18:09.991Z,79.16
2019-02-20T03:18:50.524Z,79.06
2019-02-20T03:19:31.089Z,78.97
2019-02-20T03:20:11.659Z,79.06
2019-02-20T03:20:52.216Z,79.06
2019-02-20T03:21:32.755Z,78.59
2019-02-20T03:22:13.321Z,79.06
2019-02-20T03:22:53.901Z,78.78
2019-02-20T03:23:40.093Z,78.97
2019-02-20T03:24:15.011Z,78.88
2019-02-20T03:24:55.612Z,79.16
2019-02-20T03:25:36.175Z,78.78
2019-02-20T03:26:16.752Z,78.78
2019-02-20T03:26:57.334Z,78.88
2019-02-20T03:27:37.905Z,79.06
2019-02-20T03:28:18.461Z,78.97
2019-02-20T03:28:59.003Z,78.97
2019-02-20T03:29:39.605Z,78.69
2019-02-20T03:30:20.306Z,79.06
2019-02-20T03:31:00.739Z,78.78
2019-02-20T03:31:41.304Z,79.25
2019-02-20T03:32:21.888Z,78.69
2019-02-20T03:33:02.442Z,78.78
2019-02-20T03:33:43.049Z,78.97
2019-02-20T03:34:23.604Z,79.16
2019-02-20T03:35:04.181Z,79.16
2019-02-20T03:35:44.773Z,78.78
2019-02-20T03:36:25.325Z,78.78
2019-02-20T03:37:05.882Z,78.78
2019-02-20T03:37:46.459Z,78.97
2019-02-20T03:38:30.204Z,79.06
2019-02-20T03:39:07.581Z,78.88
2019-02-20T03:39:48.141Z,78.97
2019-02-20T03:40:28.718Z,79.16
2019-02-20T03:41:09.277Z,78.88
2019-02-20T03:41:49.861Z,79.44
2019-02-20T03:42:30.414Z,79.16
2019-02-20T03:43:11.005Z,79.25
2019-02-20T03:43:51.580Z,79.35
2019-02-20T03:44:32.161Z,79.35
2019-02-20T03:45:12.722Z,79.06
2019-02-20T03:45:53.266Z,79.63
2019-02-20T03:46:33.880Z,79.44
2019-02-20T03:47:14.463Z,79.16
2019-02-20T03:47:55.043Z,79.16
2019-02-20T03:48:35.621Z,79.54
2019-02-20T03:49:16.154Z,79.54
2019-02-20T03:49:56.759Z,79.06
2019-02-20T03:50:37.340Z,79.06
2019-02-20T03:51:17.957Z,78.97
2019-02-20T03:51:58.548Z,79.63
2019-02-20T03:52:39.165Z,79.63
2019-02-20T03:53:19.748Z,78.78
2019-02-20T03:54:00.291Z,79.06
2019-02-20T03:54:40.917Z,79.54
2019-02-20T03:55:21.524Z,79.63
2019-02-20T03:56:02.077Z,79.54
2019-02-20T03:56:42.612Z,79.73
2019-02-20T03:57:23.186Z,79.35
2019-02-20T03:58:03.739Z,79.73
2019-02-20T03:58:44.310Z,79.63
2019-02-20T03:59:24.866Z,79.35
2019-02-20T04:00:05.461Z,79.44
2019-02-20T04:00:45.996Z,79.25
2019-02-20T04:01:26.548Z,79.44
2019-02-20T04:02:07.128Z,79.25
2019-02-20T04:02:47.674Z,79.44
2019-02-20T04:03:28.243Z,79.63
2019-02-20T04:04:08.815Z,79.54
2019-02-20T04:04:49.444Z,79.63
2019-02-20T04:05:30.034Z,80.11
2019-02-20T04:06:10.625Z,80.11
2019-02-20T04:06:51.181Z,80.21
2019-02-20T04:07:31.773Z,79.92
2019-02-20T04:08:12.374Z,80.4
2019-02-20T04:08:52.932Z,80.4
2019-02-20T04:09:33.483Z,80.11
2019-02-20T04:10:14.069Z,80.3
2019-02-20T04:10:54.672Z,80.11
2019-02-20T04:11:35.247Z,80.02
2019-02-20T04:12:15.809Z,80.02
2019-02-20T04:12:56.387Z,80.02
2019-02-20T04:13:36.981Z,80.58
2019-02-20T04:14:17.556Z,80.3
2019-02-20T04:14:58.170Z,80.49
2019-02-20T04:15:38.713Z,80.02
2019-02-20T04:16:19.290Z,80.11
2019-02-20T04:16:59.857Z,80.11
2019-02-20T04:17:40.433Z,80.58
2019-02-20T04:18:21.013Z,80.58
2019-02-20T04:19:01.582Z,80.21
2019-02-20T04:19:42.139Z,80.21
2019-02-20T04:20:22.736Z,80.4
2019-02-20T04:21:03.363Z,80.21
2019-02-20T04:21:44.388Z,80.3
2019-02-20T04:22:24.948Z,80.4
2019-02-20T04:23:05.525Z,80.49
2019-02-20T04:23:46.135Z,80.4
2019-02-20T04:24:26.750Z,80.4
2019-02-20T04:25:07.328Z,80.58
2019-02-20T04:25:47.930Z,80.58
2019-02-20T04:26:28.481Z,80.3
2019-02-20T04:27:09.038Z,80.21
2019-02-20T04:27:49.614Z,80.3
2019-02-20T04:28:30.154Z,80.4
2019-02-20T04:29:10.795Z,80.4
2019-02-20T04:29:51.372Z,80.49
2019-02-20T04:30:31.947Z,80.02
2019-02-20T04:31:12.506Z,80.02
2019-02-20T04:31:53.063Z,80.02
2019-02-20T04:32:33.638Z,80.21
2019-02-20T04:33:14.201Z,80.21
2019-02-20T04:33:54.798Z,80.3
2019-02-20T04:34:35.359Z,80.21
2019-02-20T04:35:15.942Z,80.02
2019-02-20T04:35:56.511Z,80.02
2019-02-20T04:36:37.085Z,80.21
2019-02-20T04:37:17.652Z,80.4
2019-02-20T04:37:58.256Z,80.4
2019-02-20T04:38:38.867Z,80.87
2019-02-20T04:39:19.449Z,80.49
2019-02-20T04:40:00.005Z,80.87
2019-02-20T04:40:40.592Z,80.87
2019-02-20T04:41:21.208Z,80.77
2019-02-20T04:42:01.785Z,80.68
2019-02-20T04:42:42.393Z,80.4
2019-02-20T04:43:22.956Z,80.4
2019-02-20T04:44:03.527Z,80.3
2019-02-20T04:44:44.101Z,80.21
2019-02-20T04:45:24.680Z,80.02
2019-02-20T04:46:05.235Z,80.21
2019-02-20T04:46:45.793Z,80.02
2019-02-20T04:47:26.351Z,80.02
2019-02-20T04:48:06.952Z,80.02
2019-02-20T04:48:47.515Z,80.11
2019-02-20T04:49:28.097Z,80.02
2019-02-20T04:50:08.672Z,80.4
2019-02-20T04:50:49.239Z,80.02
2019-02-20T04:51:29.789Z,80.4
2019-02-20T04:52:10.398Z,80.87
2019-02-20T04:52:50.980Z,80.87
2019-02-20T04:53:31.559Z,80.4
2019-02-20T04:54:13.580Z,80.3
2019-02-20T04:54:52.708Z,80.4
2019-02-20T04:55:33.281Z,80.4
2019-02-20T04:56:13.829Z,80.4
2019-02-20T04:56:54.413Z,80.21
2019-02-20T04:57:34.984Z,80.4
2019-02-20T04:58:15.585Z,79.73
2019-02-20T04:58:56.153Z,80.4
2019-02-20T04:59:36.724Z,79.44
2019-02-20T05:00:17.301Z,79.83
2019-02-20T05:00:57.876Z,79.54
2019-02-20T05:01:38.445Z,80.11
2019-02-20T05:02:18.996Z,80.02
2019-02-20T05:02:59.599Z,80.4
2019-02-20T05:03:40.184Z,79.44
2019-02-20T05:04:20.754Z,79.73
2019-02-20T05:05:01.312Z,79.54
2019-02-20T05:05:41.882Z,79.54
2019-02-20T05:06:22.469Z,79.35
2019-02-20T05:07:03.046Z,80.21
2019-02-20T05:07:43.602Z,80.21
2019-02-20T05:08:24.184Z,79.92
2019-02-20T05:09:04.743Z,80.11
2019-02-20T05:09:45.341Z,80.11
2019-02-20T05:10:25.893Z,80.4
2019-02-20T05:11:06.458Z,80.58
2019-02-20T05:11:47.052Z,80.21
2019-02-20T05:12:27.624Z,80.4
2019-02-20T05:13:08.203Z,80.4
2019-02-20T05:13:48.749Z,80.4
2019-02-20T05:14:29.315Z,80.4
2019-02-20T05:15:09.878Z,80.58
2019-02-20T05:15:50.436Z,80.3
2019-02-20T05:16:31.009Z,80.68
2019-02-20T05:17:11.607Z,80.49
2019-02-20T05:17:52.161Z,80.11
2019-02-20T05:18:32.722Z,80.21
2019-02-20T05:19:13.299Z,80.02
2019-02-20T05:19:53.925Z,80.3
2019-02-20T05:20:34.483Z,79.77
2019-02-20T05:21:15.071Z,79.54
2019-02-20T05:21:55.656Z,79.49
2019-02-20T05:22:36.248Z,79.01
2019-02-20T05:23:16.797Z,79.35
2019-02-20T05:23:57.376Z,79.3
2019-02-20T05:24:37.938Z,79.01
2019-02-20T05:25:18.528Z,78.97
2019-02-20T05:25:59.091Z,78.88
2019-02-20T05:26:39.673Z,78.78
2019-02-20T05:27:20.227Z,79.16
2019-02-20T05:28:00.795Z,78.78
2019-02-20T05:28:41.389Z,79.11
2019-02-20T05:29:21.943Z,79.06
2019-02-20T05:30:02.514Z,78.82
2019-02-20T05:30:43.094Z,79.06
2019-02-20T05:31:23.701Z,79.06
2019-02-20T05:32:04.250Z,79.3
2019-02-20T05:32:44.837Z,79.01
2019-02-20T05:33:25.418Z,79.25
2019-02-20T05:34:05.971Z,79.01
2019-02-20T05:34:46.552Z,79.01
2019-02-20T05:35:27.109Z,78.72
2019-02-20T05:36:07.668Z,79.11
2019-02-20T05:36:48.274Z,78.91
2019-02-20T05:37:28.844Z,78.63
2019-02-20T05:38:09.410Z,78.72
2019-02-20T05:38:49.980Z,78.53
2019-02-20T05:39:30.542Z,78.44
2019-02-20T05:40:11.169Z,78.72
2019-02-20T05:40:51.715Z,78.53
2019-02-20T05:41:32.297Z,78.53
2019-02-20T05:42:12.858Z,78.53
2019-02-20T05:42:53.482Z,78.59
2019-02-20T05:43:34.058Z,78.53
2019-02-20T05:44:14.635Z,78.59
2019-02-20T05:44:55.206Z,79.06
2019-02-20T05:45:35.762Z,79.06
2019-02-20T05:46:16.319Z,78.5
2019-02-20T05:46:56.969Z,78.4
2019-02-20T05:47:37.563Z,78.63
2019-02-20T05:48:18.179Z,78.59
2019-02-20T05:48:58.770Z,78.5
2019-02-20T05:49:39.329Z,78.3
2019-02-20T05:50:19.919Z,78.4
2019-02-20T05:51:00.481Z,78.59
2019-02-20T05:51:41.053Z,78.53
2019-02-20T05:52:21.616Z,78.4
2019-02-20T05:53:02.194Z,78.63
2019-02-20T05:53:42.759Z,78.59
2019-02-20T05:54:23.340Z,78.59
2019-02-20T05:55:03.876Z,78.59
2019-02-20T05:55:44.439Z,78.59
2019-02-20T05:56:25.034Z,78.97
2019-02-20T05:57:05.641Z,78.4
2019-02-20T05:57:46.188Z,78.3
2019-02-20T05:58:26.756Z,78.88
2019-02-20T05:59:07.362Z,78.88
2019-02-20T05:59:47.929Z,79.16
2019-02-20T06:00:28.498Z,78.78
2019-02-20T06:01:09.043Z,79.2
2019-02-20T06:01:49.595Z,78.88
2019-02-20T06:02:30.156Z,78.5
2019-02-20T06:03:10.708Z,78.72
2019-02-20T06:03:51.313Z,78.3
2019-02-20T06:04:31.928Z,78.59
2019-02-20T06:05:12.551Z,78.3
2019-02-20T06:05:53.115Z,78.34
2019-02-20T06:06:33.698Z,78.5
2019-02-20T06:07:14.288Z,78.4
2019-02-20T06:07:54.840Z,78.44
2019-02-20T06:08:35.383Z,78.53
2019-02-20T06:09:15.964Z,78.59
2019-02-20T06:09:56.544Z,78.4
2019-02-20T06:10:37.127Z,78.44
2019-02-20T06:11:17.770Z,78.63
2019-02-20T06:11:58.375Z,78.53
2019-02-20T06:12:38.944Z,78.63
2019-02-20T06:13:19.492Z,78.44
2019-02-20T06:14:00.047Z,78.34
2019-02-20T06:14:40.642Z,78.53
2019-02-20T06:15:21.202Z,78.16
2019-02-20T06:16:01.777Z,77.64
2019-02-20T06:16:42.375Z,78.06
2019-02-20T06:17:22.950Z,77.73
2019-02-20T06:18:03.572Z,77.68
2019-02-20T06:18:44.132Z,77.87
2019-02-20T06:19:24.731Z,77.97
2019-02-20T06:20:05.281Z,77.73
2019-02-20T06:20:45.938Z,77.68
2019-02-20T06:21:26.912Z,77.73
2019-02-20T06:22:07.473Z,77.87
2019-02-20T06:22:48.144Z,77.68
2019-02-20T06:23:28.781Z,77.77
2019-02-20T06:24:09.343Z,77.58
2019-02-20T06:24:51.818Z,77.58
2019-02-20T06:25:32.387Z,77.87
2019-02-20T06:26:12.949Z,77.77
2019-02-20T06:26:53.519Z,78.16
2019-02-20T06:27:34.098Z,77.97
2019-02-20T06:28:14.714Z,78.06
2019-02-20T06:28:55.286Z,77.11
2019-02-20T06:29:35.902Z,77.01
2019-02-20T06:30:16.490Z,77.01
2019-02-20T06:30:57.058Z,77.01
2019-02-20T06:31:37.625Z,77.49
2019-02-20T06:32:18.209Z,77.2
2019-02-20T06:32:58.785Z,77.3
2019-02-20T06:33:39.351Z,77.3
2019-02-20T06:34:20.147Z,77.39
2019-02-20T06:35:00.721Z,77.2
2019-02-20T06:35:41.274Z,76.82
2019-02-20T06:36:21.826Z,77.2
2019-02-20T06:37:02.433Z,77.49
2019-02-20T06:37:43.042Z,76.92
2019-02-20T06:38:23.584Z,77.11
2019-02-20T06:39:04.205Z,77.3
2019-02-20T06:39:44.794Z,77.39
2019-02-20T06:40:26.002Z,76.92
2019-02-20T06:41:07.963Z,77.2
2019-02-20T06:41:48.778Z,77.68
2019-02-20T06:42:29.433Z,77.39
2019-02-20T06:43:10.509Z,77.3
2019-02-20T06:43:52.639Z,77.2
2019-02-20T06:44:33.237Z,77.11
2019-02-20T06:45:14.117Z,77.01
2019-02-20T06:45:54.820Z,77.01
2019-02-20T06:46:35.604Z,77.2
2019-02-20T06:47:16.306Z,77.11
2019-02-20T06:47:56.851Z,77.3
2019-02-20T06:48:37.424Z,77.3
2019-02-20T06:49:17.979Z,76.92
2019-02-20T06:50:00.917Z,76.44
2019-02-20T06:50:39.114Z,76.44
2019-02-20T06:51:19.682Z,76.82
2019-02-20T06:52:00.254Z,76.73
2019-02-20T06:52:40.812Z,76.82
2019-02-20T06:53:21.374Z,76.82
2019-02-20T06:54:02.003Z,76.44
2019-02-20T06:54:42.573Z,76.92
2019-02-20T06:55:23.206Z,76.63
2019-02-20T06:56:03.792Z,76.63
2019-02-20T06:56:44.722Z,76.63
2019-02-20T06:57:25.284Z,76.63
2019-02-20T06:58:05.901Z,76.35
2019-02-20T06:58:46.490Z,75.78
2019-02-20T06:59:27.073Z,75.87
2019-02-20T07:00:07.678Z,76.35
2019-02-20T07:00:48.291Z,76.73
2019-02-20T07:01:28.908Z,76.35
2019-02-20T07:02:09.507Z,76.35
2019-02-20T07:02:50.101Z,76.63
2019-02-20T07:03:30.683Z,76.63
2019-02-20T07:04:11.264Z,76.54
2019-02-20T07:04:51.832Z,76.16
2019-02-20T07:05:32.415Z,76.63
2019-02-20T07:06:12.999Z,76.44
2019-02-20T07:06:53.573Z,76.35
2019-02-20T07:07:34.187Z,76.25
2019-02-20T07:08:14.819Z,76.54
2019-02-20T07:08:55.451Z,75.87
2019-02-20T07:09:36.018Z,75.96
2019-02-20T07:10:16.637Z,76.16
2019-02-20T07:10:57.216Z,76.06
2019-02-20T07:11:37.855Z,75.87
2019-02-20T07:12:18.419Z,75.87
2019-02-20T07:12:58.991Z,76.35
2019-02-20T07:13:39.580Z,76.06
2019-02-20T07:14:20.156Z,76.25
2019-02-20T07:15:00.743Z,76.35
2019-02-20T07:15:41.313Z,75.87
2019-02-20T07:16:21.849Z,76.54
2019-02-20T07:17:02.422Z,76.25
2019-02-20T07:17:42.995Z,76.35
2019-02-20T07:18:23.554Z,76.44
2019-02-20T07:19:04.129Z,76.35
2019-02-20T07:19:44.755Z,76.06
2019-02-20T07:20:25.324Z,76.06
2019-02-20T07:21:05.881Z,76.35
2019-02-20T07:21:46.457Z,76.06
2019-02-20T07:22:27.017Z,76.25
2019-02-20T07:23:07.574Z,75.96
2019-02-20T07:23:48.126Z,75.87
2019-02-20T07:24:28.757Z,75.78
2019-02-20T07:25:09.427Z,75.49
2019-02-20T07:25:50.034Z,75.4
2019-02-20T07:26:30.605Z,75.68
2019-02-20T07:27:11.174Z,75.68
2019-02-20T07:27:51.856Z,75.78
2019-02-20T07:28:32.458Z,75.3
2019-02-20T07:29:13.016Z,75.3
2019-02-20T07:29:53.567Z,75.21
2019-02-20T07:30:34.130Z,75.21
2019-02-20T07:31:14.688Z,75.02
2019-02-20T07:31:55.254Z,75.59
2019-02-20T07:32:35.826Z,75.02
2019-02-20T07:33:16.385Z,75.11
2019-02-20T07:33:56.951Z,74.92
2019-02-20T07:34:37.512Z,75.02
2019-02-20T07:35:18.070Z,75.49
2019-02-20T07:35:58.653Z,75.21
2019-02-20T07:36:39.212Z,75.49
2019-02-20T07:37:19.825Z,74.82
2019-02-20T07:38:00.417Z,75.11
2019-02-20T07:38:40.990Z,74.82
2019-02-20T07:39:21.552Z,74.54
2019-02-20T07:40:02.110Z,74.73
2019-02-20T07:40:42.664Z,75.11
2019-02-20T07:41:23.239Z,75.11
2019-02-20T07:42:03.798Z,75.49
2019-02-20T07:42:44.360Z,74.92
2019-02-20T07:43:24.942Z,74.82
2019-02-20T07:44:05.501Z,74.63
2019-02-20T07:44:46.119Z,74.82
2019-02-20T07:45:26.696Z,74.35
2019-02-20T07:46:07.263Z,74.26
2019-02-20T07:46:47.850Z,74.26
2019-02-20T07:47:28.398Z,73.97
2019-02-20T07:48:08.983Z,74.26
2019-02-20T07:48:49.539Z,74.54
2019-02-20T07:49:30.158Z,74.16
2019-02-20T07:50:10.741Z,74.26
2019-02-20T07:50:51.293Z,74.07
2019-02-20T07:51:31.897Z,74.82
2019-02-20T07:52:12.484Z,74.82
2019-02-20T07:52:53.067Z,74.16
2019-02-20T07:53:33.632Z,74.35
2019-02-20T07:54:14.187Z,74.35
2019-02-20T07:54:54.753Z,73.78
2019-02-20T07:55:35.334Z,74.07
2019-02-20T07:56:15.905Z,73.78
2019-02-20T07:56:56.496Z,73.88
2019-02-20T07:57:37.058Z,73.69
2019-02-20T07:58:17.624Z,73.97
2019-02-20T07:58:58.207Z,73.69
2019-02-20T07:59:38.829Z,73.3
2019-02-20T08:00:19.393Z,73.69
2019-02-20T08:00:59.952Z,73.49
2019-02-20T08:01:40.548Z,73.78
2019-02-20T08:02:21.113Z,73.69
2019-02-20T08:03:01.675Z,73.69
2019-02-20T08:03:42.232Z,73.69
2019-02-20T08:04:22.801Z,73.69
2019-02-20T08:05:03.366Z,73.69
2019-02-20T08:05:43.944Z,73.3
2019-02-20T08:06:24.584Z,73.3
2019-02-20T08:07:05.181Z,73.78
2019-02-20T08:07:45.741Z,73.59
2019-02-20T08:08:26.295Z,73.49
2019-02-20T08:09:06.842Z,73.78
2019-02-20T08:09:47.425Z,73.59
2019-02-20T08:10:28.007Z,73.97
2019-02-20T08:11:08.596Z,73.78
2019-02-20T08:11:49.163Z,73.97
2019-02-20T08:12:29.714Z,73.69
2019-02-20T08:13:10.288Z,73.69
2019-02-20T08:13:50.898Z,73.88
2019-02-20T08:14:31.452Z,73.88
2019-02-20T08:15:12.001Z,73.78
2019-02-20T08:15:52.549Z,73.78
2019-02-20T08:16:33.118Z,73.97
2019-02-20T08:17:13.691Z,74.54
2019-02-20T08:17:54.254Z,74.26
2019-02-20T08:18:34.835Z,74.63
2019-02-20T08:19:15.389Z,74.82
2019-02-20T08:19:55.956Z,74.82
2019-02-20T08:20:36.534Z,74.63
2019-02-20T08:21:17.101Z,74.16
2019-02-20T08:21:57.668Z,74.63
2019-02-20T08:22:38.243Z,74.16
2019-02-20T08:23:18.805Z,74.35
2019-02-20T08:23:59.365Z,74.44
2019-02-20T08:24:40.005Z,74.26
2019-02-20T08:25:22.999Z,74.35
2019-02-20T08:26:01.119Z,74.63
2019-02-20T08:26:41.686Z,75.3
2019-02-20T08:27:22.225Z,75.11
2019-02-20T08:28:02.805Z,74.39
2019-02-20T08:28:43.367Z,74.2
2019-02-20T08:29:23.930Z,73.72
2019-02-20T08:30:04.556Z,73.15
2019-02-20T08:30:45.125Z,72.86
2019-02-20T08:31:25.688Z,72.3
2019-02-20T08:32:06.242Z,72.39
2019-02-20T08:32:46.836Z,72.3
2019-02-20T08:33:27.399Z,72.49
2019-02-20T08:34:07.972Z,72.49
2019-02-20T08:34:48.575Z,72.3
2019-02-20T08:35:29.122Z,72.96
2019-02-20T08:36:09.764Z,72.3
2019-02-20T08:36:50.346Z,72.58
2019-02-20T08:37:30.945Z,72.14
2019-02-20T08:38:11.519Z,72.05
2019-02-20T08:38:52.097Z,71.67
2019-02-20T08:39:32.691Z,71.19
2019-02-20T08:40:13.251Z,70.72
2019-02-20T08:40:53.840Z,70.62
2019-02-20T08:41:34.418Z,70.27
2019-02-20T08:42:14.992Z,70.27
2019-02-20T08:42:55.552Z,69.13
2019-02-20T08:43:36.115Z,68.27
2019-02-20T08:44:16.685Z,67.41
2019-02-20T08:44:57.262Z,67.8
2019-02-20T08:45:37.819Z,67.13